Fort Worth Meacham International Airport Fort Worth US
ICAO: KFTW
IATA: FTW
Category: Large
Scheduled Services: No

Elevation: 710 ft
TransAlt. 18000 ft.

Airport Communications:
RGNL APP DEP:118.1
ATIS:120.7
CLNC DEL:124.65
GND:121.9
FORT WORTH RDO:122.6
TWR:118.3
UNICOM:122.95

KFTW Zoom In..

If you have problems with the map follow the link
https://www.worldairports.se/pages/airport.php?
ICAO=KFTW

Runways:

(A) RW 09 length 3677 ft width 100 ft
---- / hdg 92

(B) RW 16 length 7502 ft width 150 ft
ILS 109.90 / hdg 164

(C) RW 17 length 4005 ft width 75 ft
---- / hdg 164

(D) RW 27 length 3677 ft width 100 ft
---- / hdg 272

(E) RW 34 length 7502 ft width 150 ft
ILS 109.90 / hdg 344

(F) RW 35 length 4005 ft width 75 ft
---- / hdg 344

Location; KFTW
Day. 28 / Time. 13.53 Zulu
* Altimeter: 29.84
* Temperature: 11° c. 51.8°f.
* Wind from: 160° Speed 18 kn with Gusts up to 25 kn.
Dewpoint: 10° c.
Visibility: 10 Statute Miles.
Clouds: Overcast 700 ft.

KFTW 281353Z 16018G25KT 10SM OVC007 11/10 A2984 RMK AO2 PK WND 16026/1314 SLP101 T01060100


Wind From 160°
Speed 18 kn.

 
 
jpsmedia worldairports.se 2020   terms of use